sensor_id;sensor_type;location;lat;lon;timestamp;P1;durP1;ratioP1;P2;durP2;ratioP2
43042;SDS011;28667;50.758;6.096;2023-08-06T00:00:23;0.40;;;0.40;;
43042;SDS011;28667;50.758;6.096;2023-08-06T00:02:49;3.50;;;0.57;;
43042;SDS011;28667;50.758;6.096;2023-08-06T00:05:15;1.00;;;0.40;;
43042;SDS011;28667;50.758;6.096;2023-08-06T00:07:46;0.55;;;0.40;;
43042;SDS011;28667;50.758;6.096;2023-08-06T00:10:15;2.35;;;0.50;;
43042;SDS011;28667;50.758;6.096;2023-08-06T00:12:41;0.25;;;0.20;;
43042;SDS011;28667;50.758;6.096;2023-08-06T00:15:07;0.63;;;0.40;;
43042;SDS011;28667;50.758;6.096;2023-08-06T00:17:34;0.47;;;0.45;;
43042;SDS011;28667;50.758;6.096;2023-08-06T00:20:00;0.52;;;0.30;;
43042;SDS011;28667;50.758;6.096;2023-08-06T00:22:35;0.35;;;0.15;;
43042;SDS011;28667;50.758;6.096;2023-08-06T00:25:03;0.45;;;0.40;;
43042;SDS011;28667;50.758;6.096;2023-08-06T00:27:29;0.20;;;0.20;;
43042;SDS011;28667;50.758;6.096;2023-08-06T00:29:55;0.40;;;0.32;;
43042;SDS011;28667;50.758;6.096;2023-08-06T00:32:21;0.60;;;0.40;;
43042;SDS011;28667;50.758;6.096;2023-08-06T00:34:47;1.00;;;0.22;;
43042;SDS011;28667;50.758;6.096;2023-08-06T00:37:17;4.40;;;0.30;;
43042;SDS011;28667;50.758;6.096;2023-08-06T00:39:43;0.52;;;0.30;;
43042;SDS011;28667;50.758;6.096;2023-08-06T00:42:10;0.52;;;0.30;;
43042;SDS011;28667;50.758;6.096;2023-08-06T00:44:36;0.15;;;0.15;;
43042;SDS011;28667;50.758;6.096;2023-08-06T00:47:03;0.63;;;0.30;;
43042;SDS011;28667;50.758;6.096;2023-08-06T00:49:29;0.60;;;0.32;;
43042;SDS011;28667;50.758;6.096;2023-08-06T00:51:56;0.88;;;0.30;;
43042;SDS011;28667;50.758;6.096;2023-08-06T00:54:23;0.15;;;0.15;;
43042;SDS011;28667;50.758;6.096;2023-08-06T00:56:50;0.32;;;0.32;;
43042;SDS011;28667;50.758;6.096;2023-08-06T00:59:15;0.50;;;0.32;;
43042;SDS011;28667;50.758;6.096;2023-08-06T01:01:41;0.50;;;0.40;;
43042;SDS011;28667;50.758;6.096;2023-08-06T01:04:07;1.50;;;0.40;;
43042;SDS011;28667;50.758;6.096;2023-08-06T01:12:18;0.40;;;0.40;;
43042;SDS011;28667;50.758;6.096;2023-08-06T01:17:25;0.20;;;0.20;;
43042;SDS011;28667;50.758;6.096;2023-08-06T01:19:52;0.35;;;0.32;;
43042;SDS011;28667;50.758;6.096;2023-08-06T01:22:18;0.50;;;0.30;;
43042;SDS011;28667;50.758;6.096;2023-08-06T01:24:46;0.47;;;0.47;;
43042;SDS011;28667;50.758;6.096;2023-08-06T01:27:38;2.05;;;0.30;;
43042;SDS011;28667;50.758;6.096;2023-08-06T01:32:43;1.23;;;0.30;;
43042;SDS011;28667;50.758;6.096;2023-08-06T01:35:11;1.33;;;0.22;;
43042;SDS011;28667;50.758;6.096;2023-08-06T01:37:40;0.40;;;0.30;;
43042;SDS011;28667;50.758;6.096;2023-08-06T01:40:09;1.52;;;0.25;;
43042;SDS011;28667;50.758;6.096;2023-08-06T01:42:39;0.30;;;0.30;;
43042;SDS011;28667;50.758;6.096;2023-08-06T01:45:07;0.40;;;0.40;;
43042;SDS011;28667;50.758;6.096;2023-08-06T01:47:33;0.40;;;0.30;;
43042;SDS011;28667;50.758;6.096;2023-08-06T01:49:59;0.93;;;0.40;;
43042;SDS011;28667;50.758;6.096;2023-08-06T01:52:25;0.60;;;0.17;;
43042;SDS011;28667;50.758;6.096;2023-08-06T01:54:51;0.25;;;0.22;;
43042;SDS011;28667;50.758;6.096;2023-08-06T01:57:17;0.35;;;0.20;;
43042;SDS011;28667;50.758;6.096;2023-08-06T01:59:43;2.80;;;0.70;;
43042;SDS011;28667;50.758;6.096;2023-08-06T02:02:09;4.82;;;0.65;;
43042;SDS011;28667;50.758;6.096;2023-08-06T02:04:35;3.40;;;0.45;;
43042;SDS011;28667;50.758;6.096;2023-08-06T02:07:00;2.05;;;0.30;;
43042;SDS011;28667;50.758;6.096;2023-08-06T02:09:26;0.90;;;0.45;;
43042;SDS011;28667;50.758;6.096;2023-08-06T02:11:52;2.92;;;0.88;;
43042;SDS011;28667;50.758;6.096;2023-08-06T02:14:18;0.20;;;0.20;;
43042;SDS011;28667;50.758;6.096;2023-08-06T02:16:43;1.00;;;0.20;;
43042;SDS011;28667;50.758;6.096;2023-08-06T02:19:09;5.80;;;0.45;;
43042;SDS011;28667;50.758;6.096;2023-08-06T02:21:35;0.50;;;0.32;;
43042;SDS011;28667;50.758;6.096;2023-08-06T02:24:00;0.22;;;0.20;;
43042;SDS011;28667;50.758;6.096;2023-08-06T02:26:27;0.43;;;0.32;;
43042;SDS011;28667;50.758;6.096;2023-08-06T02:28:54;0.40;;;0.40;;
43042;SDS011;28667;50.758;6.096;2023-08-06T02:31:20;0.30;;;0.20;;
43042;SDS011;28667;50.758;6.096;2023-08-06T02:33:46;0.20;;;0.10;;
43042;SDS011;28667;50.758;6.096;2023-08-06T02:36:12;1.33;;;0.30;;
43042;SDS011;28667;50.758;6.096;2023-08-06T02:38:37;2.78;;;0.60;;
43042;SDS011;28667;50.758;6.096;2023-08-06T02:41:03;0.57;;;0.20;;
43042;SDS011;28667;50.758;6.096;2023-08-06T02:43:30;0.57;;;0.30;;
43042;SDS011;28667;50.758;6.096;2023-08-06T02:45:59;0.32;;;0.30;;
43042;SDS011;28667;50.758;6.096;2023-08-06T02:48:25;0.20;;;0.13;;
43042;SDS011;28667;50.758;6.096;2023-08-06T02:50:52;0.20;;;0.20;;
43042;SDS011;28667;50.758;6.096;2023-08-06T02:53:21;0.60;;;0.20;;
43042;SDS011;28667;50.758;6.096;2023-08-06T02:55:49;0.30;;;0.20;;
43042;SDS011;28667;50.758;6.096;2023-08-06T02:58:18;0.15;;;0.15;;
43042;SDS011;28667;50.758;6.096;2023-08-06T03:01:05;0.52;;;0.20;;
43042;SDS011;28667;50.758;6.096;2023-08-06T03:03:41;0.10;;;0.08;;
43042;SDS011;28667;50.758;6.096;2023-08-06T03:06:08;0.20;;;0.17;;
43042;SDS011;28667;50.758;6.096;2023-08-06T03:08:41;0.35;;;0.30;;
43042;SDS011;28667;50.758;6.096;2023-08-06T03:11:06;0.10;;;0.10;;
43042;SDS011;28667;50.758;6.096;2023-08-06T03:13:33;0.47;;;0.20;;
43042;SDS011;28667;50.758;6.096;2023-08-06T03:15:59;0.38;;;0.20;;
43042;SDS011;28667;50.758;6.096;2023-08-06T03:18:26;0.20;;;0.10;;
43042;SDS011;28667;50.758;6.096;2023-08-06T03:20:54;0.73;;;0.10;;
43042;SDS011;28667;50.758;6.096;2023-08-06T03:23:20;1.08;;;0.00;;
43042;SDS011;28667;50.758;6.096;2023-08-06T03:25:46;0.00;;;0.00;;
43042;SDS011;28667;50.758;6.096;2023-08-06T03:28:13;1.55;;;0.20;;
43042;SDS011;28667;50.758;6.096;2023-08-06T03:30:39;0.10;;;0.10;;
43042;SDS011;28667;50.758;6.096;2023-08-06T03:33:07;0.25;;;0.08;;
43042;SDS011;28667;50.758;6.096;2023-08-06T03:35:33;0.20;;;0.20;;
43042;SDS011;28667;50.758;6.096;2023-08-06T03:37:59;0.10;;;0.10;;
43042;SDS011;28667;50.758;6.096;2023-08-06T03:40:26;0.10;;;0.10;;
43042;SDS011;28667;50.758;6.096;2023-08-06T03:42:54;0.85;;;0.10;;
43042;SDS011;28667;50.758;6.096;2023-08-06T03:45:20;0.10;;;0.10;;
43042;SDS011;28667;50.758;6.096;2023-08-06T03:47:45;0.00;;;0.00;;
43042;SDS011;28667;50.758;6.096;2023-08-06T03:50:12;0.00;;;0.00;;
43042;SDS011;28667;50.758;6.096;2023-08-06T03:52:38;0.00;;;0.00;;
43042;SDS011;28667;50.758;6.096;2023-08-06T03:55:04;0.10;;;0.10;;
43042;SDS011;28667;50.758;6.096;2023-08-06T03:57:30;0.10;;;0.00;;
43042;SDS011;28667;50.758;6.096;2023-08-06T03:59:56;0.22;;;0.10;;
43042;SDS011;28667;50.758;6.096;2023-08-06T04:02:25;0.15;;;0.15;;
43042;SDS011;28667;50.758;6.096;2023-08-06T04:04:50;0.10;;;0.10;;
43042;SDS011;28667;50.758;6.096;2023-08-06T04:07:18;1.13;;;0.70;;
43042;SDS011;28667;50.758;6.096;2023-08-06T04:09:51;2.08;;;0.55;;
43042;SDS011;28667;50.758;6.096;2023-08-06T04:12:22;1.10;;;0.32;;
43042;SDS011;28667;50.758;6.096;2023-08-06T04:14:48;0.65;;;0.65;;
43042;SDS011;28667;50.758;6.096;2023-08-06T04:17:14;0.80;;;0.80;;
43042;SDS011;28667;50.758;6.096;2023-08-06T04:19:40;1.52;;;0.80;;
43042;SDS011;28667;50.758;6.096;2023-08-06T04:22:06;1.40;;;1.08;;
43042;SDS011;28667;50.758;6.096;2023-08-06T04:24:33;1.13;;;1.00;;
43042;SDS011;28667;50.758;6.096;2023-08-06T04:26:59;1.30;;;1.10;;
43042;SDS011;28667;50.758;6.096;2023-08-06T04:29:27;1.25;;;0.90;;
43042;SDS011;28667;50.758;6.096;2023-08-06T04:31:53;1.77;;;1.27;;
43042;SDS011;28667;50.758;6.096;2023-08-06T04:34:19;1.00;;;1.00;;
43042;SDS011;28667;50.758;6.096;2023-08-06T04:36:45;1.00;;;0.90;;
43042;SDS011;28667;50.758;6.096;2023-08-06T04:39:11;1.30;;;0.95;;
43042;SDS011;28667;50.758;6.096;2023-08-06T04:41:37;1.23;;;1.05;;
43042;SDS011;28667;50.758;6.096;2023-08-06T04:44:02;1.23;;;1.00;;
43042;SDS011;28667;50.758;6.096;2023-08-06T04:46:29;0.73;;;0.73;;
43042;SDS011;28667;50.758;6.096;2023-08-06T04:48:55;1.60;;;1.40;;
43042;SDS011;28667;50.758;6.096;2023-08-06T04:51:20;1.55;;;0.70;;
43042;SDS011;28667;50.758;6.096;2023-08-06T04:53:46;1.75;;;0.98;;
43042;SDS011;28667;50.758;6.096;2023-08-06T04:56:12;1.05;;;0.95;;
43042;SDS011;28667;50.758;6.096;2023-08-06T04:58:37;0.80;;;0.80;;
43042;SDS011;28667;50.758;6.096;2023-08-06T05:01:03;1.15;;;1.15;;
43042;SDS011;28667;50.758;6.096;2023-08-06T05:03:29;1.20;;;1.05;;
43042;SDS011;28667;50.758;6.096;2023-08-06T05:05:55;1.38;;;1.25;;
43042;SDS011;28667;50.758;6.096;2023-08-06T05:08:20;1.73;;;1.40;;
43042;SDS011;28667;50.758;6.096;2023-08-06T05:10:46;1.65;;;1.55;;
43042;SDS011;28667;50.758;6.096;2023-08-06T05:13:12;1.65;;;1.55;;
43042;SDS011;28667;50.758;6.096;2023-08-06T05:15:38;1.45;;;1.33;;
43042;SDS011;28667;50.758;6.096;2023-08-06T05:18:07;1.45;;;1.35;;
43042;SDS011;28667;50.758;6.096;2023-08-06T05:20:36;1.75;;;1.65;;
43042;SDS011;28667;50.758;6.096;2023-08-06T05:23:06;4.78;;;1.70;;
43042;SDS011;28667;50.758;6.096;2023-08-06T05:25:31;5.25;;;2.25;;
43042;SDS011;28667;50.758;6.096;2023-08-06T05:27:59;1.75;;;1.52;;
43042;SDS011;28667;50.758;6.096;2023-08-06T05:30:26;1.50;;;1.40;;
43042;SDS011;28667;50.758;6.096;2023-08-06T05:32:52;6.03;;;1.60;;
43042;SDS011;28667;50.758;6.096;2023-08-06T05:35:18;4.90;;;1.67;;
43042;SDS011;28667;50.758;6.096;2023-08-06T05:37:44;1.80;;;1.40;;
43042;SDS011;28667;50.758;6.096;2023-08-06T05:40:09;3.22;;;1.73;;
43042;SDS011;28667;50.758;6.096;2023-08-06T05:42:35;4.93;;;3.08;;
43042;SDS011;28667;50.758;6.096;2023-08-06T05:45:01;1.60;;;1.45;;
43042;SDS011;28667;50.758;6.096;2023-08-06T05:47:26;4.05;;;1.70;;
43042;SDS011;28667;50.758;6.096;2023-08-06T05:49:52;1.58;;;1.48;;
43042;SDS011;28667;50.758;6.096;2023-08-06T05:52:18;1.90;;;1.75;;
43042;SDS011;28667;50.758;6.096;2023-08-06T05:54:44;4.47;;;2.47;;
43042;SDS011;28667;50.758;6.096;2023-08-06T05:57:09;8.93;;;1.90;;
43042;SDS011;28667;50.758;6.096;2023-08-06T05:59:35;1.90;;;1.80;;
43042;SDS011;28667;50.758;6.096;2023-08-06T06:02:01;1.80;;;1.70;;
43042;SDS011;28667;50.758;6.096;2023-08-06T06:04:27;2.00;;;1.80;;
43042;SDS011;28667;50.758;6.096;2023-08-06T06:06:53;2.25;;;1.75;;
43042;SDS011;28667;50.758;6.096;2023-08-06T06:09:19;2.67;;;2.47;;
43042;SDS011;28667;50.758;6.096;2023-08-06T06:11:45;4.60;;;2.17;;
43042;SDS011;28667;50.758;6.096;2023-08-06T06:14:10;7.88;;;2.78;;
43042;SDS011;28667;50.758;6.096;2023-08-06T06:16:36;2.28;;;1.88;;
43042;SDS011;28667;50.758;6.096;2023-08-06T06:19:03;2.40;;;2.20;;
43042;SDS011;28667;50.758;6.096;2023-08-06T06:21:28;2.33;;;1.85;;
43042;SDS011;28667;50.758;6.096;2023-08-06T06:23:54;2.40;;;2.20;;
43042;SDS011;28667;50.758;6.096;2023-08-06T06:26:21;2.20;;;2.00;;
43042;SDS011;28667;50.758;6.096;2023-08-06T06:28:47;2.20;;;2.00;;
43042;SDS011;28667;50.758;6.096;2023-08-06T06:31:12;4.40;;;1.98;;
43042;SDS011;28667;50.758;6.096;2023-08-06T06:33:38;2.90;;;2.17;;
43042;SDS011;28667;50.758;6.096;2023-08-06T06:36:04;2.05;;;1.60;;
43042;SDS011;28667;50.758;6.096;2023-08-06T06:38:32;2.08;;;1.88;;
43042;SDS011;28667;50.758;6.096;2023-08-06T06:40:59;4.15;;;2.13;;
43042;SDS011;28667;50.758;6.096;2023-08-06T06:43:25;2.05;;;1.83;;
43042;SDS011;28667;50.758;6.096;2023-08-06T06:45:57;2.78;;;1.92;;
43042;SDS011;28667;50.758;6.096;2023-08-06T06:48:27;2.78;;;2.15;;
43042;SDS011;28667;50.758;6.096;2023-08-06T06:50:53;3.25;;;2.10;;
43042;SDS011;28667;50.758;6.096;2023-08-06T06:53:19;3.47;;;2.65;;
43042;SDS011;28667;50.758;6.096;2023-08-06T06:55:46;4.38;;;2.20;;
43042;SDS011;28667;50.758;6.096;2023-08-06T06:58:14;2.67;;;2.13;;
43042;SDS011;28667;50.758;6.096;2023-08-06T07:00:41;3.60;;;2.10;;
43042;SDS011;28667;50.758;6.096;2023-08-06T07:03:07;3.40;;;1.75;;
43042;SDS011;28667;50.758;6.096;2023-08-06T07:05:33;1.55;;;1.42;;
43042;SDS011;28667;50.758;6.096;2023-08-06T07:07:58;3.05;;;1.70;;
43042;SDS011;28667;50.758;6.096;2023-08-06T07:10:25;1.75;;;1.17;;
43042;SDS011;28667;50.758;6.096;2023-08-06T07:12:51;2.50;;;1.20;;
43042;SDS011;28667;50.758;6.096;2023-08-06T07:15:17;2.40;;;0.60;;
43042;SDS011;28667;50.758;6.096;2023-08-06T07:17:43;0.70;;;0.70;;
43042;SDS011;28667;50.758;6.096;2023-08-06T07:20:09;0.50;;;0.50;;
43042;SDS011;28667;50.758;6.096;2023-08-06T07:22:35;0.60;;;0.60;;
43042;SDS011;28667;50.758;6.096;2023-08-06T07:25:01;0.55;;;0.55;;
43042;SDS011;28667;50.758;6.096;2023-08-06T07:27:27;0.47;;;0.40;;
43042;SDS011;28667;50.758;6.096;2023-08-06T07:29:52;2.00;;;0.70;;
43042;SDS011;28667;50.758;6.096;2023-08-06T07:32:18;0.50;;;0.40;;
43042;SDS011;28667;50.758;6.096;2023-08-06T07:34:44;0.30;;;0.30;;
43042;SDS011;28667;50.758;6.096;2023-08-06T07:37:09;2.45;;;0.47;;
43042;SDS011;28667;50.758;6.096;2023-08-06T07:39:35;2.65;;;0.40;;
43042;SDS011;28667;50.758;6.096;2023-08-06T07:42:03;3.83;;;0.50;;
43042;SDS011;28667;50.758;6.096;2023-08-06T07:44:31;0.20;;;0.20;;
43042;SDS011;28667;50.758;6.096;2023-08-06T07:46:56;0.60;;;0.25;;
43042;SDS011;28667;50.758;6.096;2023-08-06T07:49:22;0.55;;;0.10;;
43042;SDS011;28667;50.758;6.096;2023-08-06T07:51:48;0.45;;;0.30;;
43042;SDS011;28667;50.758;6.096;2023-08-06T07:54:14;1.23;;;0.20;;
43042;SDS011;28667;50.758;6.096;2023-08-06T07:56:39;0.25;;;0.20;;
43042;SDS011;28667;50.758;6.096;2023-08-06T07:59:05;0.20;;;0.20;;
43042;SDS011;28667;50.758;6.096;2023-08-06T08:01:31;0.22;;;0.22;;
43042;SDS011;28667;50.758;6.096;2023-08-06T08:03:57;0.55;;;0.40;;
43042;SDS011;28667;50.758;6.096;2023-08-06T08:06:22;0.22;;;0.10;;
43042;SDS011;28667;50.758;6.096;2023-08-06T08:08:48;0.20;;;0.20;;
43042;SDS011;28667;50.758;6.096;2023-08-06T08:11:14;2.47;;;0.60;;
43042;SDS011;28667;50.758;6.096;2023-08-06T08:13:41;0.90;;;0.55;;
43042;SDS011;28667;50.758;6.096;2023-08-06T08:16:07;4.38;;;0.80;;
43042;SDS011;28667;50.758;6.096;2023-08-06T08:18:32;0.98;;;0.98;;
43042;SDS011;28667;50.758;6.096;2023-08-06T08:20:58;1.50;;;1.35;;
43042;SDS011;28667;50.758;6.096;2023-08-06T08:23:24;1.77;;;1.40;;
43042;SDS011;28667;50.758;6.096;2023-08-06T08:25:50;1.38;;;1.27;;
43042;SDS011;28667;50.758;6.096;2023-08-06T08:28:16;2.95;;;1.60;;
43042;SDS011;28667;50.758;6.096;2023-08-06T08:30:42;1.48;;;1.38;;
43042;SDS011;28667;50.758;6.096;2023-08-06T08:33:07;1.85;;;1.70;;
43042;SDS011;28667;50.758;6.096;2023-08-06T08:35:33;1.75;;;1.65;;
43042;SDS011;28667;50.758;6.096;2023-08-06T08:38:01;3.17;;;1.77;;
43042;SDS011;28667;50.758;6.096;2023-08-06T08:40:29;2.58;;;1.88;;
43042;SDS011;28667;50.758;6.096;2023-08-06T08:42:57;4.30;;;1.77;;
43042;SDS011;28667;50.758;6.096;2023-08-06T08:45:23;2.05;;;1.80;;
43042;SDS011;28667;50.758;6.096;2023-08-06T08:47:53;1.85;;;1.75;;
43042;SDS011;28667;50.758;6.096;2023-08-06T08:50:19;2.28;;;1.50;;
43042;SDS011;28667;50.758;6.096;2023-08-06T08:52:46;1.42;;;1.33;;
43042;SDS011;28667;50.758;6.096;2023-08-06T08:55:14;1.35;;;1.25;;
43042;SDS011;28667;50.758;6.096;2023-08-06T08:57:41;2.45;;;1.45;;
43042;SDS011;28667;50.758;6.096;2023-08-06T09:00:07;1.25;;;0.82;;
43042;SDS011;28667;50.758;6.096;2023-08-06T09:02:33;2.17;;;0.95;;
43042;SDS011;28667;50.758;6.096;2023-08-06T09:05:00;1.88;;;1.42;;
43042;SDS011;28667;50.758;6.096;2023-08-06T09:07:29;2.33;;;1.00;;
43042;SDS011;28667;50.758;6.096;2023-08-06T09:10:02;6.88;;;1.20;;
43042;SDS011;28667;50.758;6.096;2023-08-06T09:12:30;1.77;;;1.30;;
43042;SDS011;28667;50.758;6.096;2023-08-06T09:14:56;1.48;;;0.90;;
43042;SDS011;28667;50.758;6.096;2023-08-06T09:17:22;1.73;;;1.00;;
43042;SDS011;28667;50.758;6.096;2023-08-06T09:19:49;1.42;;;1.13;;
43042;SDS011;28667;50.758;6.096;2023-08-06T09:22:14;2.47;;;1.10;;
43042;SDS011;28667;50.758;6.096;2023-08-06T09:24:41;1.73;;;0.80;;
43042;SDS011;28667;50.758;6.096;2023-08-06T09:27:13;1.27;;;0.88;;
43042;SDS011;28667;50.758;6.096;2023-08-06T09:29:40;1.02;;;0.80;;
43042;SDS011;28667;50.758;6.096;2023-08-06T09:32:07;4.88;;;0.70;;
43042;SDS011;28667;50.758;6.096;2023-08-06T09:34:32;5.47;;;1.10;;
43042;SDS011;28667;50.758;6.096;2023-08-06T09:36:58;1.50;;;0.60;;
43042;SDS011;28667;50.758;6.096;2023-08-06T09:39:27;5.38;;;0.88;;
43042;SDS011;28667;50.758;6.096;2023-08-06T09:41:58;4.07;;;0.73;;
43042;SDS011;28667;50.758;6.096;2023-08-06T09:44:26;2.75;;;0.80;;
43042;SDS011;28667;50.758;6.096;2023-08-06T09:46:53;3.22;;;0.70;;
43042;SDS011;28667;50.758;6.096;2023-08-06T09:49:44;0.80;;;0.57;;
43042;SDS011;28667;50.758;6.096;2023-08-06T09:52:11;3.42;;;0.73;;
43042;SDS011;28667;50.758;6.096;2023-08-06T09:54:38;3.28;;;0.70;;
43042;SDS011;28667;50.758;6.096;2023-08-06T09:57:04;2.33;;;0.95;;
43042;SDS011;28667;50.758;6.096;2023-08-06T09:59:30;1.20;;;0.60;;
43042;SDS011;28667;50.758;6.096;2023-08-06T10:01:58;1.08;;;0.60;;
43042;SDS011;28667;50.758;6.096;2023-08-06T10:04:24;1.13;;;0.85;;
43042;SDS011;28667;50.758;6.096;2023-08-06T10:06:51;0.50;;;0.50;;
43042;SDS011;28667;50.758;6.096;2023-08-06T10:09:17;1.08;;;0.60;;
43042;SDS011;28667;50.758;6.096;2023-08-06T10:11:44;2.42;;;0.65;;
43042;SDS011;28667;50.758;6.096;2023-08-06T10:14:25;1.25;;;0.50;;
43042;SDS011;28667;50.758;6.096;2023-08-06T10:16:56;1.50;;;0.63;;
43042;SDS011;28667;50.758;6.096;2023-08-06T10:19:23;0.80;;;0.73;;
43042;SDS011;28667;50.758;6.096;2023-08-06T10:22:12;3.90;;;0.90;;
43042;SDS011;28667;50.758;6.096;2023-08-06T10:24:48;3.42;;;0.68;;
43042;SDS011;28667;50.758;6.096;2023-08-06T10:27:28;1.65;;;0.80;;
43042;SDS011;28667;50.758;6.096;2023-08-06T10:29:56;2.13;;;0.60;;
43042;SDS011;28667;50.758;6.096;2023-08-06T10:32:58;2.95;;;0.80;;
43042;SDS011;28667;50.758;6.096;2023-08-06T10:35:47;0.93;;;0.73;;
43042;SDS011;28667;50.758;6.096;2023-08-06T10:38:19;0.63;;;0.45;;
43042;SDS011;28667;50.758;6.096;2023-08-06T10:43:27;1.60;;;0.32;;
43042;SDS011;28667;50.758;6.096;2023-08-06T10:45:55;3.45;;;0.95;;
43042;SDS011;28667;50.758;6.096;2023-08-06T10:48:31;1.38;;;0.40;;
43042;SDS011;28667;50.758;6.096;2023-08-06T10:51:03;2.03;;;0.45;;
43042;SDS011;28667;50.758;6.096;2023-08-06T10:53:33;4.03;;;0.55;;
43042;SDS011;28667;50.758;6.096;2023-08-06T10:55:58;2.33;;;0.63;;
43042;SDS011;28667;50.758;6.096;2023-08-06T10:58:25;1.02;;;0.30;;
43042;SDS011;28667;50.758;6.096;2023-08-06T11:00:51;1.42;;;0.50;;
43042;SDS011;28667;50.758;6.096;2023-08-06T11:03:17;1.02;;;0.40;;
43042;SDS011;28667;50.758;6.096;2023-08-06T11:05:49;2.00;;;0.70;;
43042;SDS011;28667;50.758;6.096;2023-08-06T11:08:28;0.63;;;0.40;;
43042;SDS011;28667;50.758;6.096;2023-08-06T11:10:55;0.90;;;0.45;;
43042;SDS011;28667;50.758;6.096;2023-08-06T11:13:21;3.97;;;1.33;;
43042;SDS011;28667;50.758;6.096;2023-08-06T11:15:47;0.57;;;0.50;;
43042;SDS011;28667;50.758;6.096;2023-08-06T11:18:12;2.85;;;0.50;;
43042;SDS011;28667;50.758;6.096;2023-08-06T11:20:38;1.65;;;0.60;;
43042;SDS011;28667;50.758;6.096;2023-08-06T11:23:05;0.52;;;0.52;;
43042;SDS011;28667;50.758;6.096;2023-08-06T11:25:31;0.40;;;0.40;;
43042;SDS011;28667;50.758;6.096;2023-08-06T11:28:01;0.35;;;0.30;;
43042;SDS011;28667;50.758;6.096;2023-08-06T11:30:27;0.20;;;0.20;;
43042;SDS011;28667;50.758;6.096;2023-08-06T11:32:52;1.77;;;0.75;;
43042;SDS011;28667;50.758;6.096;2023-08-06T11:35:18;1.23;;;0.35;;
43042;SDS011;28667;50.758;6.096;2023-08-06T11:37:45;1.02;;;0.17;;
43042;SDS011;28667;50.758;6.096;2023-08-06T11:40:11;0.20;;;0.20;;
43042;SDS011;28667;50.758;6.096;2023-08-06T11:42:39;1.27;;;0.50;;
43042;SDS011;28667;50.758;6.096;2023-08-06T11:45:05;0.10;;;0.10;;
43042;SDS011;28667;50.758;6.096;2023-08-06T11:47:31;0.47;;;0.28;;
43042;SDS011;28667;50.758;6.096;2023-08-06T11:49:57;0.15;;;0.05;;
43042;SDS011;28667;50.758;6.096;2023-08-06T11:52:23;0.15;;;0.10;;
43042;SDS011;28667;50.758;6.096;2023-08-06T11:57:36;0.25;;;0.25;;
43042;SDS011;28667;50.758;6.096;2023-08-06T12:00:11;0.30;;;0.30;;
43042;SDS011;28667;50.758;6.096;2023-08-06T12:02:38;0.10;;;0.10;;
43042;SDS011;28667;50.758;6.096;2023-08-06T12:07:36;0.30;;;0.20;;
43042;SDS011;28667;50.758;6.096;2023-08-06T12:10:03;0.10;;;0.10;;
43042;SDS011;28667;50.758;6.096;2023-08-06T12:12:30;0.30;;;0.30;;
43042;SDS011;28667;50.758;6.096;2023-08-06T12:14:56;0.47;;;0.45;;
43042;SDS011;28667;50.758;6.096;2023-08-06T12:17:22;2.53;;;0.63;;
43042;SDS011;28667;50.758;6.096;2023-08-06T12:19:49;0.52;;;0.52;;
43042;SDS011;28667;50.758;6.096;2023-08-06T12:22:14;1.85;;;1.00;;
43042;SDS011;28667;50.758;6.096;2023-08-06T12:24:41;1.88;;;0.77;;
43042;SDS011;28667;50.758;6.096;2023-08-06T12:27:08;0.73;;;0.50;;
43042;SDS011;28667;50.758;6.096;2023-08-06T12:29:34;4.05;;;0.70;;
43042;SDS011;28667;50.758;6.096;2023-08-06T12:31:59;0.57;;;0.50;;
43042;SDS011;28667;50.758;6.096;2023-08-06T12:34:25;1.73;;;0.40;;
43042;SDS011;28667;50.758;6.096;2023-08-06T12:36:51;1.70;;;0.52;;
43042;SDS011;28667;50.758;6.096;2023-08-06T12:39:17;0.90;;;0.50;;
43042;SDS011;28667;50.758;6.096;2023-08-06T12:41:43;4.63;;;0.50;;
43042;SDS011;28667;50.758;6.096;2023-08-06T12:44:11;0.52;;;0.52;;
43042;SDS011;28667;50.758;6.096;2023-08-06T12:46:37;2.88;;;0.73;;
43042;SDS011;28667;50.758;6.096;2023-08-06T12:49:03;0.20;;;0.20;;
43042;SDS011;28667;50.758;6.096;2023-08-06T12:51:29;1.83;;;0.40;;
43042;SDS011;28667;50.758;6.096;2023-08-06T12:53:56;1.98;;;0.40;;
43042;SDS011;28667;50.758;6.096;2023-08-06T12:56:21;2.28;;;0.32;;
43042;SDS011;28667;50.758;6.096;2023-08-06T12:58:47;3.20;;;0.85;;
43042;SDS011;28667;50.758;6.096;2023-08-06T13:01:13;0.98;;;0.20;;
43042;SDS011;28667;50.758;6.096;2023-08-06T13:03:38;3.17;;;0.50;;
43042;SDS011;28667;50.758;6.096;2023-08-06T13:06:04;1.55;;;0.38;;
43042;SDS011;28667;50.758;6.096;2023-08-06T13:08:30;1.95;;;0.63;;
43042;SDS011;28667;50.758;6.096;2023-08-06T13:10:56;1.75;;;0.40;;
43042;SDS011;28667;50.758;6.096;2023-08-06T13:13:21;1.48;;;0.43;;
43042;SDS011;28667;50.758;6.096;2023-08-06T13:15:47;1.35;;;0.40;;
43042;SDS011;28667;50.758;6.096;2023-08-06T13:18:13;2.15;;;0.50;;
43042;SDS011;28667;50.758;6.096;2023-08-06T13:20:38;1.10;;;0.55;;
43042;SDS011;28667;50.758;6.096;2023-08-06T13:23:07;1.02;;;0.22;;
43042;SDS011;28667;50.758;6.096;2023-08-06T13:25:32;2.55;;;0.45;;
43042;SDS011;28667;50.758;6.096;2023-08-06T13:28:02;1.58;;;0.35;;
43042;SDS011;28667;50.758;6.096;2023-08-06T13:30:28;0.28;;;0.28;;
43042;SDS011;28667;50.758;6.096;2023-08-06T13:32:54;1.45;;;0.30;;
43042;SDS011;28667;50.758;6.096;2023-08-06T13:35:22;0.75;;;0.25;;
43042;SDS011;28667;50.758;6.096;2023-08-06T13:37:48;0.40;;;0.30;;
43042;SDS011;28667;50.758;6.096;2023-08-06T13:40:14;0.57;;;0.15;;
43042;SDS011;28667;50.758;6.096;2023-08-06T13:42:40;0.10;;;0.10;;
43042;SDS011;28667;50.758;6.096;2023-08-06T13:45:06;0.20;;;0.10;;
43042;SDS011;28667;50.758;6.096;2023-08-06T13:47:32;0.40;;;0.40;;
43042;SDS011;28667;50.758;6.096;2023-08-06T13:49:58;0.93;;;0.47;;
43042;SDS011;28667;50.758;6.096;2023-08-06T13:52:27;1.02;;;0.60;;
43042;SDS011;28667;50.758;6.096;2023-08-06T13:54:53;0.70;;;0.45;;
43042;SDS011;28667;50.758;6.096;2023-08-06T13:57:18;2.47;;;0.55;;
43042;SDS011;28667;50.758;6.096;2023-08-06T13:59:44;0.90;;;0.63;;
43042;SDS011;28667;50.758;6.096;2023-08-06T14:02:10;2.78;;;0.85;;
43042;SDS011;28667;50.758;6.096;2023-08-06T14:04:36;5.68;;;0.88;;
43042;SDS011;28667;50.758;6.096;2023-08-06T14:07:05;2.05;;;0.60;;
43042;SDS011;28667;50.758;6.096;2023-08-06T14:09:31;4.25;;;0.63;;
43042;SDS011;28667;50.758;6.096;2023-08-06T14:11:56;3.17;;;0.90;;
43042;SDS011;28667;50.758;6.096;2023-08-06T14:14:22;1.27;;;0.45;;
43042;SDS011;28667;50.758;6.096;2023-08-06T14:16:54;1.92;;;0.35;;
43042;SDS011;28667;50.758;6.096;2023-08-06T14:19:20;2.00;;;0.50;;
43042;SDS011;28667;50.758;6.096;2023-08-06T14:21:46;0.30;;;0.30;;
43042;SDS011;28667;50.758;6.096;2023-08-06T14:24:12;3.45;;;0.47;;
43042;SDS011;28667;50.758;6.096;2023-08-06T14:26:38;0.75;;;0.43;;
43042;SDS011;28667;50.758;6.096;2023-08-06T14:29:04;0.52;;;0.20;;
43042;SDS011;28667;50.758;6.096;2023-08-06T14:31:29;1.75;;;0.40;;
43042;SDS011;28667;50.758;6.096;2023-08-06T14:33:55;0.28;;;0.28;;
43042;SDS011;28667;50.758;6.096;2023-08-06T14:36:21;0.63;;;0.17;;
43042;SDS011;28667;50.758;6.096;2023-08-06T14:38:47;0.38;;;0.15;;
43042;SDS011;28667;50.758;6.096;2023-08-06T14:41:12;0.10;;;0.10;;
43042;SDS011;28667;50.758;6.096;2023-08-06T14:43:38;0.43;;;0.30;;
43042;SDS011;28667;50.758;6.096;2023-08-06T14:46:04;0.88;;;0.35;;
43042;SDS011;28667;50.758;6.096;2023-08-06T14:48:30;1.55;;;0.30;;
43042;SDS011;28667;50.758;6.096;2023-08-06T14:50:56;0.65;;;0.30;;
43042;SDS011;28667;50.758;6.096;2023-08-06T14:53:22;0.70;;;0.10;;
43042;SDS011;28667;50.758;6.096;2023-08-06T14:55:47;2.03;;;0.25;;
43042;SDS011;28667;50.758;6.096;2023-08-06T14:58:14;0.10;;;0.10;;
43042;SDS011;28667;50.758;6.096;2023-08-06T15:00:39;0.60;;;0.20;;
43042;SDS011;28667;50.758;6.096;2023-08-06T15:03:05;1.80;;;0.30;;
43042;SDS011;28667;50.758;6.096;2023-08-06T15:05:31;0.35;;;0.22;;